createdAt,value
2023-04-21T00:03:41.970Z,9.26
2023-04-21T00:08:43.689Z,9.16
2023-04-21T00:13:45.319Z,9.08
2023-04-21T00:18:48.010Z,9.00
2023-04-21T00:23:50.133Z,8.87
2023-04-21T00:28:51.978Z,8.81
2023-04-21T00:33:54.134Z,8.75
2023-04-21T00:38:57.362Z,8.73
2023-04-21T00:44:09.457Z,8.73
2023-04-21T00:54:15.009Z,8.58
2023-04-21T00:59:18.187Z,8.45
2023-04-21T01:04:20.079Z,8.32
2023-04-21T01:09:22.064Z,8.24
2023-04-21T01:14:23.871Z,8.17
2023-04-21T01:19:28.633Z,8.19
2023-04-21T01:24:44.774Z,8.09
2023-04-21T01:29:49.806Z,8.01
2023-04-21T01:34:52.082Z,7.93
2023-04-21T01:39:55.618Z,7.93
2023-04-21T01:44:57.729Z,7.84
2023-04-21T01:49:59.602Z,7.76
2023-04-21T01:55:01.883Z,7.80
2023-04-21T02:00:04.960Z,7.75
2023-04-21T02:05:16.699Z,7.71
2023-04-21T02:10:18.647Z,7.72
2023-04-21T02:15:20.284Z,7.73
2023-04-21T02:20:21.967Z,7.66
2023-04-21T02:25:23.576Z,7.68
2023-04-21T02:30:25.188Z,7.69
2023-04-21T02:35:27.212Z,7.61
2023-04-21T02:40:29.012Z,7.60
2023-04-21T02:45:30.752Z,7.55
2023-04-21T02:50:32.388Z,7.49
2023-04-21T02:55:34.339Z,7.29
2023-04-21T03:00:37.786Z,7.24
2023-04-21T03:05:39.415Z,7.20
2023-04-21T03:10:41.605Z,7.14
2023-04-21T03:15:43.757Z,7.04
2023-04-21T03:20:45.456Z,7.02
2023-04-21T03:25:47.093Z,6.95
2023-04-21T03:30:48.708Z,6.89
2023-04-21T03:35:50.294Z,6.85
2023-04-21T03:40:51.880Z,6.80
2023-04-21T03:45:53.868Z,6.75
2023-04-21T03:50:55.741Z,6.65
2023-04-21T03:55:57.458Z,6.68
2023-04-21T04:00:59.076Z,6.65
2023-04-21T04:06:01.237Z,6.65
2023-04-21T04:11:03.094Z,6.67
2023-04-21T04:16:05.404Z,6.66
2023-04-21T04:21:07.692Z,6.64
2023-04-21T04:26:09.498Z,6.64
2023-04-21T04:31:11.277Z,6.74
2023-04-21T04:36:13.005Z,6.80
2023-04-21T04:41:15.843Z,6.86
2023-04-21T04:46:17.555Z,6.94
2023-04-21T04:51:19.136Z,7.20
2023-04-21T04:56:21.013Z,7.31
2023-04-21T05:01:25.965Z,7.30
2023-04-21T05:06:28.515Z,7.45
2023-04-21T05:11:30.216Z,7.52
2023-04-21T05:16:31.905Z,7.79
2023-04-21T05:21:33.732Z,8.21
2023-04-21T05:26:35.486Z,8.35
2023-04-21T05:31:39.019Z,8.36
2023-04-21T05:36:44.210Z,8.36
2023-04-21T05:41:45.932Z,8.38
2023-04-21T05:46:47.506Z,8.52
2023-04-21T05:51:49.160Z,8.59
2023-04-21T05:56:50.894Z,8.84
2023-04-21T06:01:52.497Z,9.08
2023-04-21T06:06:54.118Z,9.36
2023-04-21T06:11:56.949Z,9.61
2023-04-21T06:16:58.926Z,9.99
2023-04-21T06:22:00.510Z,10.43
2023-04-21T06:27:02.144Z,10.67
2023-04-21T06:32:04.071Z,11.01
2023-04-21T06:37:06.113Z,11.49
2023-04-21T06:42:07.827Z,11.81
2023-04-21T06:47:17.222Z,12.07
2023-04-21T06:52:20.208Z,12.20
2023-04-21T06:57:21.957Z,12.00
2023-04-21T07:02:23.786Z,11.57
2023-04-21T07:07:26.175Z,11.25
2023-04-21T07:12:27.873Z,11.43
2023-04-21T07:17:29.560Z,11.94
2023-04-21T07:22:31.566Z,12.23
2023-04-21T07:27:34.193Z,12.60
2023-04-21T07:32:37.576Z,12.73
2023-04-21T07:37:40.741Z,12.95
2023-04-21T07:42:42.372Z,13.32
2023-04-21T07:47:44.231Z,13.45
2023-04-21T07:52:46.039Z,13.69
2023-04-21T07:57:47.909Z,13.67
2023-04-21T08:02:49.619Z,14.19
2023-04-21T08:07:51.403Z,14.55
2023-04-21T08:12:53.052Z,15.26
2023-04-21T08:17:55.065Z,15.51
2023-04-21T08:22:57.951Z,16.10
2023-04-21T08:27:59.673Z,16.68
2023-04-21T08:33:01.398Z,17.04
2023-04-21T08:38:03.194Z,17.03
2023-04-21T08:43:08.719Z,17.36
2023-04-21T08:48:16.590Z,17.41
2023-04-21T08:53:18.260Z,17.19
2023-04-21T08:58:22.741Z,16.93
2023-04-21T09:03:27.048Z,16.92
2023-04-21T09:08:30.457Z,17.43
2023-04-21T09:13:34.289Z,17.92
2023-04-21T09:18:40.120Z,17.84
2023-04-21T09:23:43.675Z,18.12
2023-04-21T09:28:48.356Z,18.73
2023-04-21T09:34:01.153Z,18.72
2023-04-21T09:44:09.221Z,19.26
2023-04-21T09:49:13.879Z,19.49
2023-04-21T09:54:29.672Z,19.83
2023-04-21T09:59:37.029Z,19.92
2023-04-21T10:04:42.285Z,19.78
2023-04-21T10:09:57.618Z,20.68
2023-04-21T10:15:03.442Z,20.55
2023-04-21T10:20:07.072Z,20.84
2023-04-21T10:25:10.158Z,20.91
2023-04-21T10:30:29.138Z,20.80
2023-04-21T10:36:04.714Z,20.74
2023-04-21T10:41:31.052Z,21.15
2023-04-21T10:46:36.696Z,21.20
2023-04-21T10:52:00.169Z,22.37
2023-04-21T10:57:02.099Z,22.11
2023-04-21T11:07:16.480Z,22.68
2023-04-21T11:12:18.918Z,22.71
2023-04-21T11:17:21.506Z,23.06
2023-04-21T11:22:25.217Z,23.06
2023-04-21T11:27:29.169Z,23.65
2023-04-21T11:32:31.101Z,23.23
2023-04-21T11:37:32.791Z,23.16
2023-04-21T11:42:34.647Z,22.72
2023-04-21T11:47:37.594Z,22.83
2023-04-21T11:52:39.694Z,23.06
2023-04-21T11:57:41.674Z,23.13
2023-04-21T12:02:43.812Z,23.11
2023-04-21T12:07:51.915Z,23.51
2023-04-21T12:12:56.329Z,24.05
2023-04-21T12:17:58.085Z,23.54
2023-04-21T12:23:01.038Z,23.97
2023-04-21T12:28:02.807Z,24.04
2023-04-21T12:33:04.711Z,23.51
2023-04-21T12:38:06.547Z,23.33
2023-04-21T12:43:08.312Z,23.58
2023-04-21T12:48:10.187Z,23.77
2023-04-21T12:53:11.928Z,23.39
2023-04-21T12:58:15.628Z,23.45
2023-04-21T13:03:17.424Z,23.52
2023-04-21T13:08:19.179Z,23.78
2023-04-21T13:13:20.860Z,23.56
2023-04-21T13:18:22.837Z,23.70
2023-04-21T13:23:24.495Z,22.91
2023-04-21T13:28:26.777Z,23.01
2023-04-21T13:33:28.545Z,22.91
2023-04-21T13:38:30.888Z,22.83
2023-04-21T13:43:32.612Z,23.04
2023-04-21T13:48:34.268Z,22.88
2023-04-21T13:53:36.211Z,22.79
2023-04-21T13:58:38.018Z,23.36
2023-04-21T14:03:39.964Z,23.64
2023-04-21T14:08:42.003Z,23.16
2023-04-21T14:13:59.546Z,22.96
2023-04-21T14:19:05.300Z,22.38
2023-04-21T14:24:07.580Z,22.19
2023-04-21T14:29:09.222Z,21.68
2023-04-21T14:34:11.061Z,21.81
2023-04-21T14:39:12.961Z,21.69
2023-04-21T14:44:15.747Z,21.78
2023-04-21T14:49:17.651Z,21.76
2023-04-21T14:54:19.231Z,22.06
2023-04-21T14:59:20.968Z,22.33
2023-04-21T15:04:22.916Z,22.22
2023-04-21T15:09:25.245Z,22.29
2023-04-21T15:14:26.998Z,21.72
2023-04-21T15:19:28.695Z,21.43
2023-04-21T15:24:30.523Z,21.69
2023-04-21T15:29:32.239Z,21.72
2023-04-21T15:34:34.051Z,21.34
2023-04-21T15:39:35.781Z,21.21
2023-04-21T15:44:39.102Z,20.97
2023-04-21T15:49:40.765Z,20.98
2023-04-21T15:54:46.020Z,20.84
2023-04-21T15:59:47.754Z,20.57
2023-04-21T16:04:49.709Z,20.33
2023-04-21T16:09:51.596Z,20.20
2023-04-21T16:14:59.633Z,19.87
2023-04-21T16:20:09.323Z,19.63
2023-04-21T16:25:13.817Z,19.51
2023-04-21T16:30:15.888Z,19.35
2023-04-21T16:35:17.682Z,19.36
2023-04-21T16:40:19.597Z,19.28
2023-04-21T16:45:21.416Z,19.21
2023-04-21T16:50:23.640Z,18.95
2023-04-21T16:55:25.343Z,18.86
2023-04-21T17:00:27.386Z,18.54
2023-04-21T17:05:30.463Z,18.42
2023-04-21T17:10:32.182Z,18.35
2023-04-21T17:15:34.216Z,18.29
2023-04-21T17:20:36.726Z,18.17
2023-04-21T17:25:38.714Z,18.09
2023-04-21T17:30:40.312Z,17.98
2023-04-21T17:35:55.864Z,17.83
2023-04-21T17:41:06.694Z,17.73
2023-04-21T17:46:08.581Z,17.60
2023-04-21T17:51:11.042Z,17.48
2023-04-21T17:56:14.573Z,17.35
2023-04-21T18:01:17.020Z,17.18
2023-04-21T18:06:18.851Z,17.03
2023-04-21T18:11:20.545Z,16.90
2023-04-21T18:16:22.489Z,16.75
2023-04-21T18:21:24.396Z,16.59
2023-04-21T18:26:26.653Z,16.40
2023-04-21T18:31:29.797Z,16.21
2023-04-21T18:36:33.458Z,16.07
2023-04-21T18:41:37.272Z,15.88
2023-04-21T18:46:38.968Z,15.74
2023-04-21T18:51:40.756Z,15.60
2023-04-21T18:56:42.418Z,15.46
2023-04-21T19:01:44.351Z,15.30
2023-04-21T19:06:46.198Z,15.19
2023-04-21T19:11:47.901Z,15.03
2023-04-21T19:16:51.831Z,14.86
2023-04-21T19:21:53.584Z,14.67
2023-04-21T19:26:55.867Z,14.56
2023-04-21T19:31:58.349Z,14.48
2023-04-21T19:37:00.469Z,14.34
2023-04-21T19:42:02.061Z,14.19
2023-04-21T19:47:03.784Z,14.06
2023-04-21T19:52:05.998Z,13.91
2023-04-21T19:57:07.698Z,13.71
2023-04-21T20:02:09.632Z,13.62
2023-04-21T20:07:11.517Z,13.50
2023-04-21T20:12:13.146Z,13.35
2023-04-21T20:17:14.727Z,13.21
2023-04-21T20:22:16.350Z,13.05
2023-04-21T20:27:18.493Z,12.95
2023-04-21T20:32:20.265Z,12.82
2023-04-21T20:37:23.385Z,12.70
2023-04-21T20:42:25.414Z,12.60
2023-04-21T20:47:27.031Z,12.52
2023-04-21T20:52:28.666Z,12.42
2023-04-21T20:57:30.707Z,12.33
2023-04-21T21:02:32.449Z,12.25
2023-04-21T21:07:34.290Z,12.15
2023-04-21T21:12:35.932Z,12.05
2023-04-21T21:17:37.690Z,11.99
2023-04-21T21:22:39.363Z,11.92
2023-04-21T21:27:41.047Z,11.86
2023-04-21T21:32:42.756Z,11.66
2023-04-21T21:37:44.469Z,11.45
2023-04-21T21:42:46.054Z,11.41
2023-04-21T21:47:47.756Z,11.34
2023-04-21T21:52:49.493Z,11.28
2023-04-21T21:57:51.221Z,11.23
2023-04-21T22:02:53.011Z,11.17
2023-04-21T22:07:56.806Z,11.13
2023-04-21T22:12:58.485Z,11.05
2023-04-21T22:18:00.304Z,11.01
2023-04-21T22:23:02.818Z,10.93
2023-04-21T22:28:04.750Z,10.86
2023-04-21T22:33:06.775Z,10.80
2023-04-21T22:38:08.473Z,10.74
2023-04-21T22:43:10.173Z,10.60
2023-04-21T22:48:14.085Z,10.51
2023-04-21T22:53:15.833Z,10.49
2023-04-21T22:58:17.481Z,10.43
2023-04-21T23:03:19.337Z,10.40
2023-04-21T23:08:21.130Z,10.22
2023-04-21T23:13:23.072Z,10.16
2023-04-21T23:18:24.762Z,10.10
2023-04-21T23:23:26.521Z,10.07
2023-04-21T23:28:28.172Z,10.03
2023-04-21T23:33:29.892Z,9.93
2023-04-21T23:38:31.716Z,9.91
2023-04-21T23:43:34.579Z,9.86
2023-04-21T23:48:36.506Z,9.72
2023-04-21T23:53:38.270Z,9.68
2023-04-21T23:58:39.885Z,9.65
